sensor_id;sensor_type;location;lat;lon;timestamp;noise_LAeq;noise_LA_min;noise_LA_max;noise_LA01;noise_LA95
69668;Laerm;66534;52.370;4.832;2023-12-20T00:00:01;46.75;41.72;56.94;;
69668;Laerm;66534;52.370;4.832;2023-12-20T00:00:31;46.41;41.80;63.34;;
69668;Laerm;66534;52.370;4.832;2023-12-20T00:01:01;51.12;41.54;63.33;;
69668;Laerm;66534;52.370;4.832;2023-12-20T00:01:32;44.24;39.81;57.23;;
69668;Laerm;66534;52.370;4.832;2023-12-20T00:02:02;46.23;40.38;59.71;;
69668;Laerm;66534;52.370;4.832;2023-12-20T00:02:33;44.41;41.34;55.95;;
69668;Laerm;66534;52.370;4.832;2023-12-20T00:03:03;42.90;39.70;55.21;;
69668;Laerm;66534;52.370;4.832;2023-12-20T00:03:34;47.82;41.62;57.12;;
69668;Laerm;66534;52.370;4.832;2023-12-20T00:04:04;45.81;40.60;58.30;;
69668;Laerm;66534;52.370;4.832;2023-12-20T00:04:34;44.11;38.61;51.56;;
69668;Laerm;66534;52.370;4.832;2023-12-20T00:05:05;43.37;38.35;50.93;;
69668;Laerm;66534;52.370;4.832;2023-12-20T00:05:35;41.49;37.67;56.88;;
69668;Laerm;66534;52.370;4.832;2023-12-20T00:06:08;43.14;40.52;50.11;;
69668;Laerm;66534;52.370;4.832;2023-12-20T00:06:38;42.49;38.66;56.89;;
69668;Laerm;66534;52.370;4.832;2023-12-20T00:07:08;40.50;37.37;48.22;;
69668;Laerm;66534;52.370;4.832;2023-12-20T00:07:39;46.89;38.59;59.27;;
69668;Laerm;66534;52.370;4.832;2023-12-20T00:08:09;44.11;39.94;53.07;;
69668;Laerm;66534;52.370;4.832;2023-12-20T00:08:39;44.64;40.46;58.56;;
69668;Laerm;66534;52.370;4.832;2023-12-20T00:09:10;43.05;39.25;59.64;;
69668;Laerm;66534;52.370;4.832;2023-12-20T00:09:40;41.32;38.30;58.48;;
69668;Laerm;66534;52.370;4.832;2023-12-20T00:10:10;42.14;38.42;55.15;;
69668;Laerm;66534;52.370;4.832;2023-12-20T00:10:43;42.45;39.15;57.12;;
69668;Laerm;66534;52.370;4.832;2023-12-20T00:11:13;44.94;39.70;54.58;;
69668;Laerm;66534;52.370;4.832;2023-12-20T00:11:43;43.59;38.73;60.21;;
69668;Laerm;66534;52.370;4.832;2023-12-20T00:12:13;43.26;39.15;57.61;;
69668;Laerm;66534;52.370;4.832;2023-12-20T00:12:44;44.07;38.40;57.59;;
69668;Laerm;66534;52.370;4.832;2023-12-20T00:13:14;43.70;38.83;53.13;;
69668;Laerm;66534;52.370;4.832;2023-12-20T00:13:44;41.87;38.42;53.15;;
69668;Laerm;66534;52.370;4.832;2023-12-20T00:14:14;44.78;40.65;53.84;;
69668;Laerm;66534;52.370;4.832;2023-12-20T00:14:45;44.99;41.04;52.75;;
69668;Laerm;66534;52.370;4.832;2023-12-20T00:15:15;44.76;42.02;52.27;;
69668;Laerm;66534;52.370;4.832;2023-12-20T00:15:45;43.72;39.53;60.38;;
69668;Laerm;66534;52.370;4.832;2023-12-20T00:16:15;41.97;38.39;57.72;;
69668;Laerm;66534;52.370;4.832;2023-12-20T00:16:46;43.69;40.11;55.26;;
69668;Laerm;66534;52.370;4.832;2023-12-20T00:17:16;47.16;39.47;60.56;;
69668;Laerm;66534;52.370;4.832;2023-12-20T00:17:46;43.92;40.42;52.81;;
69668;Laerm;66534;52.370;4.832;2023-12-20T00:18:17;45.20;40.84;60.94;;
69668;Laerm;66534;52.370;4.832;2023-12-20T00:18:47;46.37;40.60;57.04;;
69668;Laerm;66534;52.370;4.832;2023-12-20T00:19:17;45.52;40.68;54.20;;
69668;Laerm;66534;52.370;4.832;2023-12-20T00:19:47;44.17;39.55;52.85;;
69668;Laerm;66534;52.370;4.832;2023-12-20T00:20:18;42.83;39.59;53.98;;
69668;Laerm;66534;52.370;4.832;2023-12-20T00:20:48;43.89;40.23;52.63;;
69668;Laerm;66534;52.370;4.832;2023-12-20T00:21:18;45.27;41.26;57.44;;
69668;Laerm;66534;52.370;4.832;2023-12-20T00:21:48;46.75;40.80;65.61;;
69668;Laerm;66534;52.370;4.832;2023-12-20T00:22:19;42.93;38.47;62.45;;
69668;Laerm;66534;52.370;4.832;2023-12-20T00:22:49;42.14;38.63;53.73;;
69668;Laerm;66534;52.370;4.832;2023-12-20T00:23:20;44.31;40.51;55.83;;
69668;Laerm;66534;52.370;4.832;2023-12-20T00:23:50;43.69;39.27;59.52;;
69668;Laerm;66534;52.370;4.832;2023-12-20T00:24:20;45.43;41.47;55.84;;
69668;Laerm;66534;52.370;4.832;2023-12-20T00:24:50;45.75;40.10;58.23;;
69668;Laerm;66534;52.370;4.832;2023-12-20T00:25:21;42.42;38.79;53.72;;
69668;Laerm;66534;52.370;4.832;2023-12-20T00:25:51;45.46;39.46;60.14;;
69668;Laerm;66534;52.370;4.832;2023-12-20T00:26:21;46.23;39.49;62.08;;
69668;Laerm;66534;52.370;4.832;2023-12-20T00:26:51;44.23;38.16;64.02;;
69668;Laerm;66534;52.370;4.832;2023-12-20T00:27:22;43.87;38.67;56.09;;
69668;Laerm;66534;52.370;4.832;2023-12-20T00:27:53;49.14;43.60;64.25;;
69668;Laerm;66534;52.370;4.832;2023-12-20T00:28:23;46.85;42.33;61.40;;
69668;Laerm;66534;52.370;4.832;2023-12-20T00:28:53;45.61;39.38;59.62;;
69668;Laerm;66534;52.370;4.832;2023-12-20T00:29:23;44.66;39.49;56.19;;
69668;Laerm;66534;52.370;4.832;2023-12-20T00:29:54;44.91;40.83;55.82;;
69668;Laerm;66534;52.370;4.832;2023-12-20T00:30:24;43.42;39.34;54.76;;
69668;Laerm;66534;52.370;4.832;2023-12-20T00:30:54;41.07;38.21;52.09;;
69668;Laerm;66534;52.370;4.832;2023-12-20T00:31:24;42.02;37.33;55.44;;
69668;Laerm;66534;52.370;4.832;2023-12-20T00:31:55;43.42;38.53;58.27;;
69668;Laerm;66534;52.370;4.832;2023-12-20T00:32:25;42.91;39.45;54.76;;
69668;Laerm;66534;52.370;4.832;2023-12-20T00:32:55;44.23;40.56;54.03;;
69668;Laerm;66534;52.370;4.832;2023-12-20T00:33:26;44.96;40.68;52.72;;
69668;Laerm;66534;52.370;4.832;2023-12-20T00:33:56;45.14;40.61;58.44;;
69668;Laerm;66534;52.370;4.832;2023-12-20T00:34:26;44.46;40.18;52.44;;
69668;Laerm;66534;52.370;4.832;2023-12-20T00:34:56;41.24;36.84;53.17;;
69668;Laerm;66534;52.370;4.832;2023-12-20T00:35:27;40.31;37.42;54.86;;
69668;Laerm;66534;52.370;4.832;2023-12-20T00:35:57;42.48;37.83;59.33;;
69668;Laerm;66534;52.370;4.832;2023-12-20T00:36:27;42.63;37.98;51.81;;
69668;Laerm;66534;52.370;4.832;2023-12-20T00:36:58;43.39;39.05;52.90;;
69668;Laerm;66534;52.370;4.832;2023-12-20T00:37:28;44.93;39.00;57.38;;
69668;Laerm;66534;52.370;4.832;2023-12-20T00:37:58;44.00;40.61;52.54;;
69668;Laerm;66534;52.370;4.832;2023-12-20T00:38:29;43.21;38.91;54.24;;
69668;Laerm;66534;52.370;4.832;2023-12-20T00:38:59;44.44;38.58;57.29;;
69668;Laerm;66534;52.370;4.832;2023-12-20T00:39:29;43.99;38.91;60.81;;
69668;Laerm;66534;52.370;4.832;2023-12-20T00:40:00;40.65;36.84;56.13;;
69668;Laerm;66534;52.370;4.832;2023-12-20T00:40:30;42.30;37.39;58.86;;
69668;Laerm;66534;52.370;4.832;2023-12-20T00:41:01;42.91;37.60;51.20;;
69668;Laerm;66534;52.370;4.832;2023-12-20T00:41:31;42.35;36.93;53.70;;
69668;Laerm;66534;52.370;4.832;2023-12-20T00:42:01;47.20;40.96;62.57;;
69668;Laerm;66534;52.370;4.832;2023-12-20T00:42:32;41.68;37.55;51.50;;
69668;Laerm;66534;52.370;4.832;2023-12-20T00:43:02;40.22;36.48;58.82;;
69668;Laerm;66534;52.370;4.832;2023-12-20T00:43:32;40.79;36.78;55.43;;
69668;Laerm;66534;52.370;4.832;2023-12-20T00:44:02;40.31;35.92;58.50;;
69668;Laerm;66534;52.370;4.832;2023-12-20T00:44:33;40.36;36.61;52.98;;
69668;Laerm;66534;52.370;4.832;2023-12-20T00:45:03;41.23;36.59;59.16;;
69668;Laerm;66534;52.370;4.832;2023-12-20T00:45:34;41.28;37.71;53.72;;
69668;Laerm;66534;52.370;4.832;2023-12-20T00:46:04;49.80;38.17;59.31;;
69668;Laerm;66534;52.370;4.832;2023-12-20T00:46:35;47.83;37.84;59.69;;
69668;Laerm;66534;52.370;4.832;2023-12-20T00:47:06;43.79;38.76;54.65;;
69668;Laerm;66534;52.370;4.832;2023-12-20T00:47:36;43.89;36.82;60.68;;
69668;Laerm;66534;52.370;4.832;2023-12-20T00:48:06;42.07;38.61;55.33;;
69668;Laerm;66534;52.370;4.832;2023-12-20T00:48:36;42.69;38.19;59.65;;
69668;Laerm;66534;52.370;4.832;2023-12-20T00:49:07;44.45;39.33;56.86;;
69668;Laerm;66534;52.370;4.832;2023-12-20T00:49:37;42.36;38.15;55.36;;
69668;Laerm;66534;52.370;4.832;2023-12-20T00:50:08;42.72;38.64;56.77;;
69668;Laerm;66534;52.370;4.832;2023-12-20T00:50:39;42.38;37.27;56.31;;
69668;Laerm;66534;52.370;4.832;2023-12-20T00:51:09;42.72;39.05;54.71;;
69668;Laerm;66534;52.370;4.832;2023-12-20T00:51:39;46.40;38.53;54.33;;
69668;Laerm;66534;52.370;4.832;2023-12-20T00:52:10;42.11;37.50;56.40;;
69668;Laerm;66534;52.370;4.832;2023-12-20T00:52:40;41.04;36.09;60.02;;
69668;Laerm;66534;52.370;4.832;2023-12-20T00:53:10;41.86;35.71;57.29;;
69668;Laerm;66534;52.370;4.832;2023-12-20T00:53:40;42.77;37.74;55.08;;
69668;Laerm;66534;52.370;4.832;2023-12-20T00:54:11;42.39;37.32;60.73;;
69668;Laerm;66534;52.370;4.832;2023-12-20T00:54:41;40.18;36.38;54.96;;
69668;Laerm;66534;52.370;4.832;2023-12-20T00:55:11;41.52;36.44;61.70;;
69668;Laerm;66534;52.370;4.832;2023-12-20T00:55:41;41.72;38.29;54.49;;
69668;Laerm;66534;52.370;4.832;2023-12-20T00:56:12;45.39;37.62;58.17;;
69668;Laerm;66534;52.370;4.832;2023-12-20T00:56:42;43.52;38.44;55.94;;
69668;Laerm;66534;52.370;4.832;2023-12-20T00:57:12;45.23;39.19;55.98;;
69668;Laerm;66534;52.370;4.832;2023-12-20T00:57:42;47.16;39.99;59.00;;
69668;Laerm;66534;52.370;4.832;2023-12-20T00:58:13;49.48;39.67;60.80;;
69668;Laerm;66534;52.370;4.832;2023-12-20T00:58:45;50.09;38.67;65.26;;
69668;Laerm;66534;52.370;4.832;2023-12-20T00:59:16;48.15;39.68;64.22;;
69668;Laerm;66534;52.370;4.832;2023-12-20T00:59:46;44.90;39.05;53.93;;
69668;Laerm;66534;52.370;4.832;2023-12-20T01:00:16;44.35;39.07;54.53;;
69668;Laerm;66534;52.370;4.832;2023-12-20T01:00:47;41.18;37.37;53.54;;
69668;Laerm;66534;52.370;4.832;2023-12-20T01:01:17;44.19;38.90;54.33;;
69668;Laerm;66534;52.370;4.832;2023-12-20T01:01:47;40.62;36.42;54.38;;
69668;Laerm;66534;52.370;4.832;2023-12-20T01:02:17;41.23;37.69;57.23;;
69668;Laerm;66534;52.370;4.832;2023-12-20T01:02:48;43.75;39.82;55.63;;
69668;Laerm;66534;52.370;4.832;2023-12-20T01:03:19;42.15;38.84;52.36;;
69668;Laerm;66534;52.370;4.832;2023-12-20T01:03:50;40.42;36.88;56.03;;
69668;Laerm;66534;52.370;4.832;2023-12-20T01:04:21;40.99;37.35;52.97;;
69668;Laerm;66534;52.370;4.832;2023-12-20T01:04:51;49.96;38.33;65.77;;
69668;Laerm;66534;52.370;4.832;2023-12-20T01:05:21;42.78;38.98;56.76;;
69668;Laerm;66534;52.370;4.832;2023-12-20T01:05:54;43.71;38.70;55.82;;
69668;Laerm;66534;52.370;4.832;2023-12-20T01:06:25;42.35;37.72;54.17;;
69668;Laerm;66534;52.370;4.832;2023-12-20T01:06:55;40.95;37.22;52.29;;
69668;Laerm;66534;52.370;4.832;2023-12-20T01:07:25;39.97;37.04;50.47;;
69668;Laerm;66534;52.370;4.832;2023-12-20T01:07:55;54.80;37.50;72.50;;
69668;Laerm;66534;52.370;4.832;2023-12-20T01:08:25;44.67;38.38;58.89;;
69668;Laerm;66534;52.370;4.832;2023-12-20T01:08:56;44.00;40.14;53.51;;
69668;Laerm;66534;52.370;4.832;2023-12-20T01:09:26;44.08;39.32;57.70;;
69668;Laerm;66534;52.370;4.832;2023-12-20T01:09:57;40.67;37.46;48.59;;
69668;Laerm;66534;52.370;4.832;2023-12-20T01:10:27;41.31;36.79;55.06;;
69668;Laerm;66534;52.370;4.832;2023-12-20T01:10:58;42.35;37.80;53.28;;
69668;Laerm;66534;52.370;4.832;2023-12-20T01:11:29;42.03;37.13;52.87;;
69668;Laerm;66534;52.370;4.832;2023-12-20T01:11:59;43.85;38.03;56.34;;
69668;Laerm;66534;52.370;4.832;2023-12-20T01:12:29;45.45;39.48;58.45;;
69668;Laerm;66534;52.370;4.832;2023-12-20T01:12:59;44.60;37.53;54.40;;
69668;Laerm;66534;52.370;4.832;2023-12-20T01:13:30;39.58;36.84;50.07;;
69668;Laerm;66534;52.370;4.832;2023-12-20T01:14:00;40.26;36.07;60.17;;
69668;Laerm;66534;52.370;4.832;2023-12-20T01:14:30;40.55;36.10;55.07;;
69668;Laerm;66534;52.370;4.832;2023-12-20T01:15:00;40.59;36.82;52.35;;
69668;Laerm;66534;52.370;4.832;2023-12-20T01:15:31;41.51;38.49;59.31;;
69668;Laerm;66534;52.370;4.832;2023-12-20T01:16:01;44.25;37.72;59.76;;
69668;Laerm;66534;52.370;4.832;2023-12-20T01:16:31;40.99;37.26;58.08;;
69668;Laerm;66534;52.370;4.832;2023-12-20T01:17:02;40.76;37.16;51.13;;
69668;Laerm;66534;52.370;4.832;2023-12-20T01:17:32;39.84;36.78;52.03;;
69668;Laerm;66534;52.370;4.832;2023-12-20T01:18:02;40.94;35.93;58.21;;
69668;Laerm;66534;52.370;4.832;2023-12-20T01:18:32;45.02;38.48;61.47;;
69668;Laerm;66534;52.370;4.832;2023-12-20T01:19:03;43.90;38.41;53.10;;
69668;Laerm;66534;52.370;4.832;2023-12-20T01:19:33;42.62;38.03;53.34;;
69668;Laerm;66534;52.370;4.832;2023-12-20T01:20:03;44.54;39.47;55.34;;
69668;Laerm;66534;52.370;4.832;2023-12-20T01:20:34;41.75;36.41;55.93;;
69668;Laerm;66534;52.370;4.832;2023-12-20T01:21:04;39.15;35.80;53.00;;
69668;Laerm;66534;52.370;4.832;2023-12-20T01:21:34;39.05;35.50;54.57;;
69668;Laerm;66534;52.370;4.832;2023-12-20T01:22:05;39.82;35.70;55.73;;
69668;Laerm;66534;52.370;4.832;2023-12-20T01:22:35;40.22;35.62;59.83;;
69668;Laerm;66534;52.370;4.832;2023-12-20T01:23:05;41.09;36.37;53.58;;
69668;Laerm;66534;52.370;4.832;2023-12-20T01:23:36;44.37;40.14;54.57;;
69668;Laerm;66534;52.370;4.832;2023-12-20T01:24:06;43.78;39.93;53.94;;
69668;Laerm;66534;52.370;4.832;2023-12-20T01:24:36;44.57;38.85;53.35;;
69668;Laerm;66534;52.370;4.832;2023-12-20T01:25:06;41.30;37.87;49.96;;
69668;Laerm;66534;52.370;4.832;2023-12-20T01:25:37;41.97;37.66;54.41;;
69668;Laerm;66534;52.370;4.832;2023-12-20T01:26:07;43.43;37.95;54.89;;
69668;Laerm;66534;52.370;4.832;2023-12-20T01:26:37;41.02;37.25;52.65;;
69668;Laerm;66534;52.370;4.832;2023-12-20T01:27:07;43.12;37.26;53.89;;
69668;Laerm;66534;52.370;4.832;2023-12-20T01:27:38;42.73;37.30;62.11;;
69668;Laerm;66534;52.370;4.832;2023-12-20T01:28:08;42.13;37.50;60.76;;
69668;Laerm;66534;52.370;4.832;2023-12-20T01:28:38;47.17;39.16;64.25;;
69668;Laerm;66534;52.370;4.832;2023-12-20T01:29:09;51.58;39.91;67.77;;
69668;Laerm;66534;52.370;4.832;2023-12-20T01:29:39;45.17;40.46;55.32;;
69668;Laerm;66534;52.370;4.832;2023-12-20T01:30:10;43.64;39.57;53.81;;
69668;Laerm;66534;52.370;4.832;2023-12-20T01:30:40;43.75;38.39;52.76;;
69668;Laerm;66534;52.370;4.832;2023-12-20T01:31:10;42.18;38.83;50.85;;
69668;Laerm;66534;52.370;4.832;2023-12-20T01:31:43;41.35;37.60;55.02;;
69668;Laerm;66534;52.370;4.832;2023-12-20T01:32:14;45.31;39.71;52.91;;
69668;Laerm;66534;52.370;4.832;2023-12-20T01:32:44;42.35;38.07;58.33;;
69668;Laerm;66534;52.370;4.832;2023-12-20T01:33:14;40.59;36.61;59.03;;
69668;Laerm;66534;52.370;4.832;2023-12-20T01:33:44;41.28;36.93;56.36;;
69668;Laerm;66534;52.370;4.832;2023-12-20T01:34:14;43.91;37.87;53.43;;
69668;Laerm;66534;52.370;4.832;2023-12-20T01:34:45;47.92;38.31;61.27;;
69668;Laerm;66534;52.370;4.832;2023-12-20T01:35:15;41.34;38.00;50.58;;
69668;Laerm;66534;52.370;4.832;2023-12-20T01:35:45;45.14;39.40;56.39;;
69668;Laerm;66534;52.370;4.832;2023-12-20T01:36:15;42.39;37.28;57.49;;
69668;Laerm;66534;52.370;4.832;2023-12-20T01:36:46;42.28;37.46;53.64;;
69668;Laerm;66534;52.370;4.832;2023-12-20T01:37:16;45.90;38.24;64.24;;
69668;Laerm;66534;52.370;4.832;2023-12-20T01:37:46;46.31;39.79;58.74;;
69668;Laerm;66534;52.370;4.832;2023-12-20T01:38:16;43.53;38.92;52.39;;
69668;Laerm;66534;52.370;4.832;2023-12-20T01:38:48;42.50;37.62;58.96;;
69668;Laerm;66534;52.370;4.832;2023-12-20T01:39:19;43.67;38.56;56.09;;
69668;Laerm;66534;52.370;4.832;2023-12-20T01:39:49;42.91;39.14;60.59;;
69668;Laerm;66534;52.370;4.832;2023-12-20T01:40:20;42.87;39.89;52.33;;
69668;Laerm;66534;52.370;4.832;2023-12-20T01:40:50;43.80;39.44;54.25;;
69668;Laerm;66534;52.370;4.832;2023-12-20T01:41:20;42.60;39.73;54.40;;
69668;Laerm;66534;52.370;4.832;2023-12-20T01:41:50;43.52;38.72;53.79;;
69668;Laerm;66534;52.370;4.832;2023-12-20T01:42:21;45.42;38.51;63.60;;
69668;Laerm;66534;52.370;4.832;2023-12-20T01:43:01;44.15;38.69;60.24;;
69668;Laerm;66534;52.370;4.832;2023-12-20T01:43:32;46.26;39.43;57.16;;
69668;Laerm;66534;52.370;4.832;2023-12-20T01:44:02;43.10;38.13;57.02;;
69668;Laerm;66534;52.370;4.832;2023-12-20T01:44:32;43.05;38.10;51.27;;
69668;Laerm;66534;52.370;4.832;2023-12-20T01:45:03;43.38;39.28;52.38;;
69668;Laerm;66534;52.370;4.832;2023-12-20T01:45:34;43.01;39.21;54.69;;
69668;Laerm;66534;52.370;4.832;2023-12-20T01:46:04;41.56;37.21;54.57;;
69668;Laerm;66534;52.370;4.832;2023-12-20T01:46:35;43.77;38.38;52.17;;
69668;Laerm;66534;52.370;4.832;2023-12-20T01:47:05;44.96;40.90;54.02;;
69668;Laerm;66534;52.370;4.832;2023-12-20T01:47:35;43.16;39.08;54.68;;
69668;Laerm;66534;52.370;4.832;2023-12-20T01:48:06;44.70;39.91;53.12;;
69668;Laerm;66534;52.370;4.832;2023-12-20T01:48:37;45.95;42.19;54.28;;
69668;Laerm;66534;52.370;4.832;2023-12-20T01:49:08;44.60;39.68;58.00;;
69668;Laerm;66534;52.370;4.832;2023-12-20T01:49:39;47.77;39.27;61.42;;
69668;Laerm;66534;52.370;4.832;2023-12-20T01:50:09;44.92;40.57;58.56;;
69668;Laerm;66534;52.370;4.832;2023-12-20T01:50:39;45.50;39.96;52.13;;
69668;Laerm;66534;52.370;4.832;2023-12-20T01:51:10;46.14;38.36;58.59;;
69668;Laerm;66534;52.370;4.832;2023-12-20T01:51:41;41.96;37.08;54.16;;
69668;Laerm;66534;52.370;4.832;2023-12-20T01:52:11;41.40;37.85;52.62;;
69668;Laerm;66534;52.370;4.832;2023-12-20T01:52:42;41.97;37.48;54.61;;
69668;Laerm;66534;52.370;4.832;2023-12-20T01:53:13;39.85;36.90;54.58;;
69668;Laerm;66534;52.370;4.832;2023-12-20T01:53:43;40.14;37.07;51.83;;
69668;Laerm;66534;52.370;4.832;2023-12-20T01:54:14;41.58;36.96;58.20;;
69668;Laerm;66534;52.370;4.832;2023-12-20T01:54:44;42.89;37.86;55.87;;
69668;Laerm;66534;52.370;4.832;2023-12-20T01:55:14;45.06;38.70;58.38;;
69668;Laerm;66534;52.370;4.832;2023-12-20T01:55:45;42.98;37.86;58.02;;
69668;Laerm;66534;52.370;4.832;2023-12-20T01:56:16;44.83;37.20;57.79;;
69668;Laerm;66534;52.370;4.832;2023-12-20T01:56:46;43.05;37.29;53.10;;
69668;Laerm;66534;52.370;4.832;2023-12-20T01:57:17;43.51;36.83;64.14;;
69668;Laerm;66534;52.370;4.832;2023-12-20T01:57:47;43.03;38.49;55.03;;
69668;Laerm;66534;52.370;4.832;2023-12-20T01:58:17;43.93;37.96;60.55;;
69668;Laerm;66534;52.370;4.832;2023-12-20T01:58:49;45.27;39.52;59.66;;
69668;Laerm;66534;52.370;4.832;2023-12-20T01:59:19;42.99;39.04;58.72;;
69668;Laerm;66534;52.370;4.832;2023-12-20T01:59:50;42.60;37.59;56.82;;
69668;Laerm;66534;52.370;4.832;2023-12-20T02:00:20;42.35;37.36;59.39;;
69668;Laerm;66534;52.370;4.832;2023-12-20T02:00:53;42.53;38.08;56.41;;
69668;Laerm;66534;52.370;4.832;2023-12-20T02:01:24;44.67;40.00;58.52;;
69668;Laerm;66534;52.370;4.832;2023-12-20T02:01:55;46.56;41.01;57.50;;
69668;Laerm;66534;52.370;4.832;2023-12-20T02:02:25;49.99;40.97;66.70;;
69668;Laerm;66534;52.370;4.832;2023-12-20T02:02:57;49.16;40.05;65.15;;
69668;Laerm;66534;52.370;4.832;2023-12-20T02:03:30;43.19;38.92;61.91;;
69668;Laerm;66534;52.370;4.832;2023-12-20T02:04:00;42.18;38.19;53.37;;
69668;Laerm;66534;52.370;4.832;2023-12-20T02:04:31;44.96;39.24;54.94;;
69668;Laerm;66534;52.370;4.832;2023-12-20T02:05:02;44.13;38.67;56.01;;
69668;Laerm;66534;52.370;4.832;2023-12-20T02:05:34;41.00;36.92;52.19;;
69668;Laerm;66534;52.370;4.832;2023-12-20T02:06:04;44.06;37.92;55.05;;
69668;Laerm;66534;52.370;4.832;2023-12-20T02:06:35;44.93;39.45;57.68;;
69668;Laerm;66534;52.370;4.832;2023-12-20T02:07:05;43.75;39.93;59.18;;
69668;Laerm;66534;52.370;4.832;2023-12-20T02:07:37;43.94;39.24;53.08;;
69668;Laerm;66534;52.370;4.832;2023-12-20T02:08:07;44.58;39.14;54.12;;
69668;Laerm;66534;52.370;4.832;2023-12-20T02:08:37;47.98;38.12;63.87;;
69668;Laerm;66534;52.370;4.832;2023-12-20T02:09:08;42.01;38.79;51.55;;
69668;Laerm;66534;52.370;4.832;2023-12-20T02:09:38;45.97;39.29;61.00;;
69668;Laerm;66534;52.370;4.832;2023-12-20T02:10:09;42.83;38.26;54.25;;
69668;Laerm;66534;52.370;4.832;2023-12-20T02:10:39;42.55;37.73;57.47;;
69668;Laerm;66534;52.370;4.832;2023-12-20T02:11:10;42.90;37.98;50.76;;
69668;Laerm;66534;52.370;4.832;2023-12-20T02:11:41;42.70;37.54;52.65;;
69668;Laerm;66534;52.370;4.832;2023-12-20T02:12:11;43.37;37.70;57.77;;
69668;Laerm;66534;52.370;4.832;2023-12-20T02:12:41;46.93;39.49;64.03;;
69668;Laerm;66534;52.370;4.832;2023-12-20T02:13:11;49.95;38.22;64.43;;
69668;Laerm;66534;52.370;4.832;2023-12-20T02:13:42;41.84;38.28;52.21;;
69668;Laerm;66534;52.370;4.832;2023-12-20T02:14:12;42.28;37.61;58.73;;
69668;Laerm;66534;52.370;4.832;2023-12-20T02:14:42;45.51;39.17;57.93;;
69668;Laerm;66534;52.370;4.832;2023-12-20T02:15:13;42.82;38.38;52.72;;
69668;Laerm;66534;52.370;4.832;2023-12-20T02:15:43;41.11;36.94;56.76;;
69668;Laerm;66534;52.370;4.832;2023-12-20T02:16:13;48.91;38.61;64.77;;
69668;Laerm;66534;52.370;4.832;2023-12-20T02:16:44;46.30;38.80;61.46;;
69668;Laerm;66534;52.370;4.832;2023-12-20T02:17:15;42.38;38.09;53.80;;
69668;Laerm;66534;52.370;4.832;2023-12-20T02:17:46;47.82;38.20;62.81;;
69668;Laerm;66534;52.370;4.832;2023-12-20T02:18:16;44.65;37.95;56.56;;
69668;Laerm;66534;52.370;4.832;2023-12-20T02:18:47;44.21;38.74;65.19;;
69668;Laerm;66534;52.370;4.832;2023-12-20T02:19:17;44.36;38.50;58.21;;
69668;Laerm;66534;52.370;4.832;2023-12-20T02:19:47;44.26;38.79;54.65;;
69668;Laerm;66534;52.370;4.832;2023-12-20T02:20:18;42.24;38.53;54.27;;
69668;Laerm;66534;52.370;4.832;2023-12-20T02:20:48;43.72;39.61;57.00;;
69668;Laerm;66534;52.370;4.832;2023-12-20T02:21:19;42.75;38.50;53.27;;
69668;Laerm;66534;52.370;4.832;2023-12-20T02:21:50;44.16;39.35;61.42;;
69668;Laerm;66534;52.370;4.832;2023-12-20T02:22:20;43.27;38.35;55.46;;
69668;Laerm;66534;52.370;4.832;2023-12-20T02:22:50;43.78;37.98;61.44;;
69668;Laerm;66534;52.370;4.832;2023-12-20T02:23:21;53.69;41.34;67.93;;
69668;Laerm;66534;52.370;4.832;2023-12-20T02:23:51;44.25;40.21;56.22;;
69668;Laerm;66534;52.370;4.832;2023-12-20T02:24:21;46.34;41.60;53.70;;
69668;Laerm;66534;52.370;4.832;2023-12-20T02:24:51;44.66;39.12;62.91;;
69668;Laerm;66534;52.370;4.832;2023-12-20T02:25:21;43.32;39.27;59.16;;
69668;Laerm;66534;52.370;4.832;2023-12-20T02:25:52;42.84;38.48;51.65;;
69668;Laerm;66534;52.370;4.832;2023-12-20T02:26:22;45.18;39.14;58.64;;
69668;Laerm;66534;52.370;4.832;2023-12-20T02:26:52;42.54;38.63;56.59;;
69668;Laerm;66534;52.370;4.832;2023-12-20T02:27:23;55.70;41.40;72.94;;
69668;Laerm;66534;52.370;4.832;2023-12-20T02:27:53;45.36;39.54;55.74;;
69668;Laerm;66534;52.370;4.832;2023-12-20T02:28:23;44.01;38.36;57.69;;
69668;Laerm;66534;52.370;4.832;2023-12-20T02:28:54;45.80;39.63;57.93;;
69668;Laerm;66534;52.370;4.832;2023-12-20T02:29:24;44.14;40.38;52.76;;
69668;Laerm;66534;52.370;4.832;2023-12-20T02:29:55;45.35;40.70;54.47;;
69668;Laerm;66534;52.370;4.832;2023-12-20T02:30:25;59.43;46.00;75.87;;
69668;Laerm;66534;52.370;4.832;2023-12-20T02:30:56;50.76;43.20;68.47;;
69668;Laerm;66534;52.370;4.832;2023-12-20T02:31:26;48.66;40.85;64.68;;
69668;Laerm;66534;52.370;4.832;2023-12-20T02:31:59;45.55;41.04;58.74;;
69668;Laerm;66534;52.370;4.832;2023-12-20T02:32:29;52.03;42.42;68.95;;
69668;Laerm;66534;52.370;4.832;2023-12-20T02:32:59;45.01;39.58;58.87;;
69668;Laerm;66534;52.370;4.832;2023-12-20T02:33:31;43.21;39.27;57.98;;
69668;Laerm;66534;52.370;4.832;2023-12-20T02:34:01;44.23;39.28;56.58;;
69668;Laerm;66534;52.370;4.832;2023-12-20T02:34:31;43.93;40.00;55.47;;
69668;Laerm;66534;52.370;4.832;2023-12-20T02:35:01;46.77;41.94;61.03;;
69668;Laerm;66534;52.370;4.832;2023-12-20T02:35:32;49.71;43.83;66.58;;
69668;Laerm;66534;52.370;4.832;2023-12-20T02:36:02;54.44;44.31;71.95;;
69668;Laerm;66534;52.370;4.832;2023-12-20T02:36:33;48.99;41.64;65.24;;
69668;Laerm;66534;52.370;4.832;2023-12-20T02:37:03;47.24;41.89;61.65;;
69668;Laerm;66534;52.370;4.832;2023-12-20T02:37:33;46.02;41.35;57.44;;
69668;Laerm;66534;52.370;4.832;2023-12-20T02:38:04;44.66;40.25;55.57;;
69668;Laerm;66534;52.370;4.832;2023-12-20T02:38:34;44.72;40.20;54.81;;
69668;Laerm;66534;52.370;4.832;2023-12-20T02:39:04;44.69;41.57;53.72;;
69668;Laerm;66534;52.370;4.832;2023-12-20T02:39:34;46.61;41.80;60.05;;
69668;Laerm;66534;52.370;4.832;2023-12-20T02:40:05;46.99;42.73;59.79;;
69668;Laerm;66534;52.370;4.832;2023-12-20T02:40:35;51.48;44.71;63.93;;
69668;Laerm;66534;52.370;4.832;2023-12-20T02:41:05;53.62;44.65;68.71;;
69668;Laerm;66534;52.370;4.832;2023-12-20T02:41:36;47.61;43.59;63.02;;
69668;Laerm;66534;52.370;4.832;2023-12-20T02:42:06;46.53;42.83;59.09;;
69668;Laerm;66534;52.370;4.832;2023-12-20T02:42:36;54.04;42.89;67.59;;
69668;Laerm;66534;52.370;4.832;2023-12-20T02:43:06;59.04;47.46;76.90;;
69668;Laerm;66534;52.370;4.832;2023-12-20T02:43:37;49.65;44.82;62.77;;
69668;Laerm;66534;52.370;4.832;2023-12-20T02:44:07;49.36;41.35;62.38;;
69668;Laerm;66534;52.370;4.832;2023-12-20T02:44:37;50.22;43.38;63.28;;
69668;Laerm;66534;52.370;4.832;2023-12-20T02:45:08;45.65;41.54;54.14;;
69668;Laerm;66534;52.370;4.832;2023-12-20T02:45:38;44.80;40.69;57.00;;
69668;Laerm;66534;52.370;4.832;2023-12-20T02:46:08;46.29;40.02;57.54;;
69668;Laerm;66534;52.370;4.832;2023-12-20T02:46:38;47.96;40.26;64.27;;
69668;Laerm;66534;52.370;4.832;2023-12-20T02:47:09;45.45;40.70;58.21;;
69668;Laerm;66534;52.370;4.832;2023-12-20T02:47:39;44.71;39.80;54.50;;
69668;Laerm;66534;52.370;4.832;2023-12-20T02:48:09;47.07;41.36;59.22;;
69668;Laerm;66534;52.370;4.832;2023-12-20T02:48:40;50.29;42.71;68.77;;
69668;Laerm;66534;52.370;4.832;2023-12-20T02:49:10;48.78;42.65;64.05;;
69668;Laerm;66534;52.370;4.832;2023-12-20T02:49:40;46.47;41.05;59.21;;
69668;Laerm;66534;52.370;4.832;2023-12-20T02:50:10;50.94;42.50;65.19;;